Terminal Aerodrome Forecast
Issued by NWS

Home | Current Version | Previous Version | Graphics & Text | Print | Product List | Glossary On
Versions: 1 2 3 4 5 6 7 8 9 10 11 12 13 14 15 16 17 18 19 20 21
797
FTUS43 KBIS 231128
TAFMOT
TAF
KMOT 231128Z 2312/2412 31008KT P6SM OVC020
     FM232100 30007KT P6SM BKN025
     FM240400 28006KT P6SM BKN015
     FM241100 29007KT P6SM BKN025=

USA.gov is the U.S. government's official web portal to all federal, state and local government web resources and services.